sensor_id;sensor_type;location;lat;lon;timestamp;P1;durP1;ratioP1;P2;durP2;ratioP2
38085;SDS011;23896;50.678;10.924;2024-01-30T11:38:11;7.32;;;4.65;;
38085;SDS011;23896;50.678;10.924;2024-01-30T11:40:26;6.88;;;4.60;;
38085;SDS011;23896;50.678;10.924;2024-01-30T11:42:59;11.00;;;5.13;;
38085;SDS011;23896;50.678;10.924;2024-01-30T11:48:23;4.88;;;4.18;;
38085;SDS011;23896;50.678;10.924;2024-01-30T11:56:38;4.70;;;3.75;;
38085;SDS011;23896;50.678;10.924;2024-01-30T11:59:05;7.15;;;4.05;;
38085;SDS011;23896;50.678;10.924;2024-01-30T12:07:20;5.85;;;4.55;;
38085;SDS011;23896;50.678;10.924;2024-01-30T12:10:16;4.22;;;3.83;;
38085;SDS011;23896;50.678;10.924;2024-01-30T12:22:11;7.20;;;4.05;;
38085;SDS011;23896;50.678;10.924;2024-01-30T12:24:38;5.75;;;3.97;;
38085;SDS011;23896;50.678;10.924;2024-01-30T12:36:17;6.47;;;4.07;;
38085;SDS011;23896;50.678;10.924;2024-01-30T12:38:44;4.25;;;3.60;;
38085;SDS011;23896;50.678;10.924;2024-01-30T12:41:13;4.65;;;3.83;;
38085;SDS011;23896;50.678;10.924;2024-01-30T12:43:43;6.72;;;4.18;;
38085;SDS011;23896;50.678;10.924;2024-01-30T12:46:29;4.95;;;3.97;;
38085;SDS011;23896;50.678;10.924;2024-01-30T12:51:55;5.13;;;4.32;;
38085;SDS011;23896;50.678;10.924;2024-01-30T13:06:40;6.35;;;3.80;;
38085;SDS011;23896;50.678;10.924;2024-01-30T13:15:04;6.22;;;4.45;;
38085;SDS011;23896;50.678;10.924;2024-01-30T13:41:42;5.78;;;4.03;;
38085;SDS011;23896;50.678;10.924;2024-01-30T14:27:10;5.15;;;4.10;;
38085;SDS011;23896;50.678;10.924;2024-01-30T14:32:55;8.52;;;5.65;;
38085;SDS011;23896;50.678;10.924;2024-01-30T14:44:55;6.07;;;5.40;;
38085;SDS011;23896;50.678;10.924;2024-01-30T19:11:28;6.25;;;5.43;;
38085;SDS011;23896;50.678;10.924;2024-01-30T19:13:56;9.90;;;5.72;;
38085;SDS011;23896;50.678;10.924;2024-01-30T19:19:38;7.07;;;5.80;;
38085;SDS011;23896;50.678;10.924;2024-01-30T19:22:18;7.68;;;5.75;;
38085;SDS011;23896;50.678;10.924;2024-01-30T19:24:44;7.88;;;5.38;;
38085;SDS011;23896;50.678;10.924;2024-01-30T19:27:35;7.22;;;5.85;;
38085;SDS011;23896;50.678;10.924;2024-01-30T19:30:09;8.07;;;5.82;;
38085;SDS011;23896;50.678;10.924;2024-01-30T19:32:39;7.07;;;5.30;;
38085;SDS011;23896;50.678;10.924;2024-01-30T19:35:08;7.50;;;6.15;;
38085;SDS011;23896;50.678;10.924;2024-01-30T19:37:37;11.70;;;6.07;;
38085;SDS011;23896;50.678;10.924;2024-01-30T19:40:04;8.38;;;5.28;;
38085;SDS011;23896;50.678;10.924;2024-01-30T19:42:31;6.05;;;5.25;;
38085;SDS011;23896;50.678;10.924;2024-01-30T19:44:57;7.93;;;5.30;;
38085;SDS011;23896;50.678;10.924;2024-01-30T19:47:43;10.82;;;6.18;;
38085;SDS011;23896;50.678;10.924;2024-01-30T19:50:10;8.52;;;5.25;;
38085;SDS011;23896;50.678;10.924;2024-01-30T19:52:36;11.85;;;6.20;;
38085;SDS011;23896;50.678;10.924;2024-01-30T19:55:04;12.30;;;6.70;;
38085;SDS011;23896;50.678;10.924;2024-01-30T19:57:31;8.93;;;6.25;;
38085;SDS011;23896;50.678;10.924;2024-01-30T19:59:57;8.38;;;6.25;;
38085;SDS011;23896;50.678;10.924;2024-01-30T20:02:26;8.18;;;6.82;;
38085;SDS011;23896;50.678;10.924;2024-01-30T20:04:56;11.02;;;6.53;;
38085;SDS011;23896;50.678;10.924;2024-01-30T20:07:22;10.63;;;6.57;;
38085;SDS011;23896;50.678;10.924;2024-01-30T20:09:48;10.93;;;6.35;;
38085;SDS011;23896;50.678;10.924;2024-01-30T20:12:14;7.90;;;6.40;;
38085;SDS011;23896;50.678;10.924;2024-01-30T20:14:40;8.65;;;6.57;;
38085;SDS011;23896;50.678;10.924;2024-01-30T20:17:06;10.95;;;6.80;;
38085;SDS011;23896;50.678;10.924;2024-01-30T20:19:33;10.80;;;6.40;;
38085;SDS011;23896;50.678;10.924;2024-01-30T20:21:59;8.25;;;6.05;;
38085;SDS011;23896;50.678;10.924;2024-01-30T20:24:26;6.85;;;5.95;;
38085;SDS011;23896;50.678;10.924;2024-01-30T20:26:52;8.27;;;6.05;;
38085;SDS011;23896;50.678;10.924;2024-01-30T20:32:15;8.30;;;7.43;;
38085;SDS011;23896;50.678;10.924;2024-01-30T20:34:44;8.02;;;6.65;;
38085;SDS011;23896;50.678;10.924;2024-01-30T20:37:10;8.32;;;6.82;;
38085;SDS011;23896;50.678;10.924;2024-01-30T20:39:36;8.57;;;5.70;;
38085;SDS011;23896;50.678;10.924;2024-01-30T20:42:04;10.05;;;5.45;;
38085;SDS011;23896;50.678;10.924;2024-01-30T20:44:33;9.50;;;6.20;;
38085;SDS011;23896;50.678;10.924;2024-01-30T20:47:00;9.50;;;7.00;;
38085;SDS011;23896;50.678;10.924;2024-01-30T20:49:29;12.60;;;6.82;;
38085;SDS011;23896;50.678;10.924;2024-01-30T20:51:55;9.25;;;6.43;;
38085;SDS011;23896;50.678;10.924;2024-01-30T20:54:21;11.40;;;6.70;;
38085;SDS011;23896;50.678;10.924;2024-01-30T20:56:47;11.60;;;6.80;;
38085;SDS011;23896;50.678;10.924;2024-01-30T21:08:26;9.07;;;6.30;;
38085;SDS011;23896;50.678;10.924;2024-01-30T21:10:52;11.77;;;6.80;;
38085;SDS011;23896;50.678;10.924;2024-01-30T21:13:19;10.57;;;6.97;;
38085;SDS011;23896;50.678;10.924;2024-01-30T21:15:52;10.63;;;6.97;;
38085;SDS011;23896;50.678;10.924;2024-01-30T21:18:18;11.70;;;7.22;;
38085;SDS011;23896;50.678;10.924;2024-01-30T21:20:47;12.02;;;7.10;;
38085;SDS011;23896;50.678;10.924;2024-01-30T21:23:14;10.90;;;7.22;;
38085;SDS011;23896;50.678;10.924;2024-01-30T21:25:40;10.20;;;7.60;;
38085;SDS011;23896;50.678;10.924;2024-01-30T21:28:09;11.32;;;7.60;;
38085;SDS011;23896;50.678;10.924;2024-01-30T21:30:36;10.52;;;7.13;;
38085;SDS011;23896;50.678;10.924;2024-01-30T21:33:08;11.70;;;8.32;;
38085;SDS011;23896;50.678;10.924;2024-01-30T21:35:34;13.15;;;7.47;;
38085;SDS011;23896;50.678;10.924;2024-01-30T21:44:07;12.20;;;8.45;;
38085;SDS011;23896;50.678;10.924;2024-01-30T21:46:33;14.80;;;8.55;;
38085;SDS011;23896;50.678;10.924;2024-01-30T21:48:59;12.80;;;8.68;;
38085;SDS011;23896;50.678;10.924;2024-01-30T21:57:33;19.60;;;10.85;;
38085;SDS011;23896;50.678;10.924;2024-01-30T22:00:00;12.60;;;8.38;;
38085;SDS011;23896;50.678;10.924;2024-01-30T22:02:26;12.25;;;8.23;;
38085;SDS011;23896;50.678;10.924;2024-01-30T22:04:52;14.20;;;9.57;;
38085;SDS011;23896;50.678;10.924;2024-01-30T22:07:23;16.50;;;9.18;;
38085;SDS011;23896;50.678;10.924;2024-01-30T22:21:47;13.25;;;8.80;;
38085;SDS011;23896;50.678;10.924;2024-01-30T22:24:13;10.90;;;8.90;;
38085;SDS011;23896;50.678;10.924;2024-01-30T22:26:39;11.95;;;7.90;;
38085;SDS011;23896;50.678;10.924;2024-01-30T22:32:18;15.07;;;8.15;;
38085;SDS011;23896;50.678;10.924;2024-01-30T22:38:12;16.57;;;9.57;;
38085;SDS011;23896;50.678;10.924;2024-01-30T22:43:27;16.52;;;9.05;;
38085;SDS011;23896;50.678;10.924;2024-01-30T22:45:59;12.23;;;8.70;;
38085;SDS011;23896;50.678;10.924;2024-01-30T22:48:26;13.43;;;9.95;;
38085;SDS011;23896;50.678;10.924;2024-01-30T22:51:03;12.75;;;8.82;;
38085;SDS011;23896;50.678;10.924;2024-01-30T23:02:28;14.88;;;10.45;;
38085;SDS011;23896;50.678;10.924;2024-01-30T23:08:40;17.80;;;10.05;;
38085;SDS011;23896;50.678;10.924;2024-01-30T23:11:33;16.42;;;10.05;;
38085;SDS011;23896;50.678;10.924;2024-01-30T23:14:19;14.32;;;10.88;;
38085;SDS011;23896;50.678;10.924;2024-01-30T23:16:51;19.52;;;12.60;;
38085;SDS011;23896;50.678;10.924;2024-01-30T23:19:17;14.20;;;11.07;;
38085;SDS011;23896;50.678;10.924;2024-01-30T23:21:45;15.70;;;11.38;;
38085;SDS011;23896;50.678;10.924;2024-01-30T23:24:11;14.45;;;11.23;;
38085;SDS011;23896;50.678;10.924;2024-01-30T23:26:40;13.82;;;10.35;;
38085;SDS011;23896;50.678;10.924;2024-01-30T23:29:07;12.98;;;10.63;;
38085;SDS011;23896;50.678;10.924;2024-01-30T23:31:33;16.23;;;10.50;;
38085;SDS011;23896;50.678;10.924;2024-01-30T23:33:59;13.52;;;10.88;;
38085;SDS011;23896;50.678;10.924;2024-01-30T23:36:31;14.40;;;10.35;;
38085;SDS011;23896;50.678;10.924;2024-01-30T23:38:58;16.40;;;11.73;;
38085;SDS011;23896;50.678;10.924;2024-01-30T23:41:24;17.95;;;11.70;;
38085;SDS011;23896;50.678;10.924;2024-01-30T23:43:50;15.88;;;11.70;;
38085;SDS011;23896;50.678;10.924;2024-01-30T23:46:22;19.70;;;12.38;;
38085;SDS011;23896;50.678;10.924;2024-01-30T23:48:54;18.40;;;12.13;;
38085;SDS011;23896;50.678;10.924;2024-01-30T23:51:21;19.73;;;11.50;;
38085;SDS011;23896;50.678;10.924;2024-01-30T23:54:06;16.88;;;11.85;;
38085;SDS011;23896;50.678;10.924;2024-01-30T23:56:38;17.20;;;11.73;;
38085;SDS011;23896;50.678;10.924;2024-01-30T23:59:09;19.05;;;11.60;;
